createdAt,value
2018-11-29T00:00:31.434Z,13.15
2018-11-29T00:03:00.093Z,12.25
2018-11-29T00:05:34.503Z,12.03
2018-11-29T00:08:09.199Z,11.75
2018-11-29T00:10:37.841Z,12.37
2018-11-29T00:13:06.512Z,12.95
2018-11-29T00:15:35.268Z,12.58
2018-11-29T00:18:03.942Z,11.78
2018-11-29T00:20:33.121Z,12.55
2018-11-29T00:23:01.812Z,12.25
2018-11-29T00:25:30.474Z,12.05
2018-11-29T00:27:59.137Z,11.70
2018-11-29T00:30:27.800Z,12.50
2018-11-29T00:32:56.476Z,11.18
2018-11-29T00:35:25.152Z,12.28
2018-11-29T00:37:53.808Z,12.50
2018-11-29T00:40:23.207Z,12.85
2018-11-29T00:42:52.203Z,11.50
2018-11-29T00:45:21.720Z,11.10
2018-11-29T00:47:50.718Z,10.85
2018-11-29T00:50:19.899Z,12.28
2018-11-29T00:52:49.415Z,12.00
2018-11-29T00:55:21.070Z,12.33
2018-11-29T00:57:49.753Z,11.33
2018-11-29T01:00:20.179Z,11.55
2018-11-29T01:02:49.073Z,12.93
2018-11-29T01:05:17.744Z,12.53
2018-11-29T01:07:46.442Z,12.35
2018-11-29T01:10:15.918Z,12.63
2018-11-29T01:12:45.042Z,11.90
2018-11-29T01:15:15.671Z,12.45
2018-11-29T01:17:45.075Z,12.90
2018-11-29T01:20:14.562Z,11.12
2018-11-29T01:22:43.234Z,9.63
2018-11-29T01:25:12.674Z,9.50
2018-11-29T01:27:41.856Z,11.90
2018-11-29T01:30:13.413Z,12.78
2018-11-29T01:32:42.093Z,12.00
2018-11-29T01:35:11.731Z,12.37
2018-11-29T01:37:40.374Z,12.37
2018-11-29T01:40:17.500Z,13.10
2018-11-29T01:42:50.214Z,12.03
2018-11-29T01:45:18.870Z,12.75
2018-11-29T01:47:47.545Z,12.70
2018-11-29T01:50:16.328Z,11.78
2018-11-29T01:52:44.975Z,9.45
2018-11-29T01:55:13.662Z,13.05
2018-11-29T01:57:42.352Z,12.53
2018-11-29T02:00:14.252Z,13.58
2018-11-29T02:02:43.338Z,12.93
2018-11-29T02:05:12.109Z,12.70
2018-11-29T02:07:40.773Z,9.80
2018-11-29T02:10:16.878Z,12.25
2018-11-29T02:12:45.579Z,12.75
2018-11-29T02:15:14.232Z,10.25
2018-11-29T02:17:42.897Z,11.95
2018-11-29T02:20:13.148Z,13.72
2018-11-29T02:22:41.847Z,12.58
2018-11-29T02:25:10.530Z,12.85
2018-11-29T02:27:39.318Z,13.30
2018-11-29T02:30:19.872Z,13.25
2018-11-29T02:32:48.587Z,11.57
2018-11-29T02:35:17.328Z,13.30
2018-11-29T02:37:46.015Z,13.90
2018-11-29T02:40:15.648Z,13.85
2018-11-29T02:42:44.731Z,12.73
2018-11-29T02:45:16.493Z,13.62
2018-11-29T02:47:45.184Z,13.48
2018-11-29T02:50:13.877Z,14.55
2018-11-29T02:52:42.570Z,13.38
2018-11-29T02:55:11.974Z,13.90
2018-11-29T02:57:41.060Z,15.08
2018-11-29T03:00:17.338Z,13.85
2018-11-29T03:02:46.063Z,12.30
2018-11-29T03:05:15.183Z,13.85
2018-11-29T03:07:43.896Z,12.73
2018-11-29T03:10:13.682Z,15.03
2018-11-29T03:12:42.783Z,14.33
2018-11-29T03:15:13.537Z,13.95
2018-11-29T03:17:42.405Z,14.30
2018-11-29T03:20:12.827Z,14.28
2018-11-29T03:22:41.529Z,13.48
2018-11-29T03:25:12.455Z,14.85
2018-11-29T03:27:41.152Z,13.20
2018-11-29T03:30:12.902Z,13.60
2018-11-29T03:32:41.604Z,14.13
2018-11-29T03:35:11.177Z,14.87
2018-11-29T03:37:39.864Z,13.93
2018-11-29T03:40:11.829Z,15.72
2018-11-29T03:42:40.505Z,13.55
2018-11-29T03:45:11.248Z,14.43
2018-11-29T03:47:39.913Z,14.10
2018-11-29T03:50:10.050Z,14.07
2018-11-29T03:52:38.739Z,13.65
2018-11-29T03:55:08.546Z,13.70
2018-11-29T03:57:37.537Z,13.53
2018-11-29T04:00:10.932Z,12.70
2018-11-29T04:02:39.610Z,13.10
2018-11-29T04:05:08.289Z,12.20
2018-11-29T04:07:36.942Z,13.65
2018-11-29T04:10:07.544Z,13.70
2018-11-29T04:12:36.202Z,14.33
2018-11-29T04:15:05.293Z,14.58
2018-11-29T04:17:40.413Z,14.47
2018-11-29T04:20:02.613Z,14.87
2018-11-29T04:22:31.300Z,11.80
2018-11-29T04:24:59.981Z,14.73
2018-11-29T04:27:28.634Z,14.58
2018-11-29T04:29:57.298Z,13.32
2018-11-29T04:32:25.960Z,14.78
2018-11-29T04:34:54.619Z,14.90
2018-11-29T04:37:23.323Z,13.48
2018-11-29T04:39:52.045Z,14.43
2018-11-29T04:42:20.693Z,13.58
2018-11-29T04:44:49.373Z,14.70
2018-11-29T04:47:18.054Z,11.28
2018-11-29T04:49:46.749Z,12.13
2018-11-29T04:52:15.430Z,13.70
2018-11-29T04:54:44.115Z,13.70
2018-11-29T04:57:12.785Z,14.10
2018-11-29T04:59:41.464Z,14.93
2018-11-29T05:02:10.131Z,14.20
2018-11-29T05:04:38.822Z,14.07
2018-11-29T05:07:07.499Z,13.72
2018-11-29T05:09:36.188Z,13.70
2018-11-29T05:12:04.947Z,11.08
2018-11-29T05:14:33.674Z,12.98
2018-11-29T05:17:02.350Z,12.80
2018-11-29T05:19:31.040Z,14.18
2018-11-29T05:21:59.722Z,14.63
2018-11-29T05:24:28.410Z,15.28
2018-11-29T05:26:57.086Z,13.48
2018-11-29T05:29:25.856Z,13.28
2018-11-29T05:31:54.638Z,13.53
2018-11-29T05:34:23.308Z,14.30
2018-11-29T05:36:51.998Z,13.88
2018-11-29T05:39:20.665Z,13.95
2018-11-29T05:41:49.330Z,13.62
2018-11-29T05:44:18.004Z,13.68
2018-11-29T05:46:46.683Z,13.65
2018-11-29T05:49:15.354Z,13.70
2018-11-29T05:51:44.021Z,13.00
2018-11-29T05:54:12.698Z,12.98
2018-11-29T05:56:41.400Z,14.93
2018-11-29T05:59:10.111Z,14.38
2018-11-29T06:01:40.887Z,14.33
2018-11-29T06:04:09.573Z,14.30
2018-11-29T06:06:38.254Z,13.03
2018-11-29T06:09:08.730Z,12.63
2018-11-29T06:11:38.425Z,13.05
2018-11-29T06:14:07.821Z,13.55
2018-11-29T06:16:37.261Z,13.38
2018-11-29T06:19:07.357Z,13.72
2018-11-29T06:21:36.041Z,13.60
2018-11-29T06:24:04.833Z,15.20
2018-11-29T06:26:33.512Z,13.90
2018-11-29T06:29:02.193Z,13.80
2018-11-29T06:31:30.866Z,14.25
2018-11-29T06:33:59.555Z,12.85
2018-11-29T06:36:28.322Z,14.25
2018-11-29T06:38:56.989Z,13.70
2018-11-29T06:41:25.698Z,14.90
2018-11-29T06:43:54.396Z,14.15
2018-11-29T06:46:23.061Z,14.07
2018-11-29T06:48:51.723Z,14.58
2018-11-29T06:51:20.386Z,13.60
2018-11-29T06:53:54.714Z,13.98
2018-11-29T06:56:23.369Z,14.13
2018-11-29T06:58:52.034Z,13.53
2018-11-29T07:01:20.707Z,13.70
2018-11-29T07:03:49.404Z,12.73
2018-11-29T07:06:18.095Z,13.28
2018-11-29T07:08:46.763Z,12.98
2018-11-29T07:11:15.439Z,13.40
2018-11-29T07:13:44.109Z,13.28
2018-11-29T07:16:12.786Z,13.43
2018-11-29T07:18:41.442Z,12.80
2018-11-29T07:21:21.632Z,13.08
2018-11-29T07:23:50.282Z,13.90
2018-11-29T07:26:18.966Z,14.73
2018-11-29T07:28:47.634Z,12.45
2018-11-29T07:31:16.302Z,13.08
2018-11-29T07:33:44.978Z,13.55
2018-11-29T07:36:13.671Z,14.10
2018-11-29T07:38:42.345Z,13.20
2018-11-29T07:41:11.014Z,13.40
2018-11-29T07:43:39.906Z,13.25
2018-11-29T07:46:08.575Z,14.95
2018-11-29T07:48:37.240Z,14.90
2018-11-29T07:51:05.912Z,12.20
2018-11-29T07:53:34.573Z,12.95
2018-11-29T07:56:03.237Z,12.95
2018-11-29T07:58:31.901Z,13.62
2018-11-29T08:01:00.571Z,13.70
2018-11-29T08:03:29.241Z,13.50
2018-11-29T08:05:57.927Z,14.18
2018-11-29T08:08:26.770Z,13.15
2018-11-29T08:10:55.446Z,12.75
2018-11-29T08:13:24.126Z,13.15
2018-11-29T08:15:52.794Z,13.68
2018-11-29T08:18:21.465Z,12.35
2018-11-29T08:20:50.143Z,12.75
2018-11-29T08:23:18.821Z,11.80
2018-11-29T08:25:47.491Z,12.00
2018-11-29T08:28:16.153Z,12.03
2018-11-29T08:30:44.848Z,12.20
2018-11-29T08:33:13.526Z,9.98
2018-11-29T08:35:42.247Z,10.72
2018-11-29T08:38:10.913Z,11.60
2018-11-29T08:40:39.592Z,12.30
2018-11-29T08:43:08.249Z,11.20
2018-11-29T08:45:36.923Z,12.35
2018-11-29T08:48:06.557Z,10.90
2018-11-29T08:50:35.246Z,11.43
2018-11-29T08:53:04.039Z,11.83
2018-11-29T08:55:32.729Z,12.10
2018-11-29T08:58:01.391Z,12.73
2018-11-29T09:00:30.063Z,12.40
2018-11-29T09:02:58.748Z,11.70
2018-11-29T09:05:27.413Z,11.88
2018-11-29T09:07:56.076Z,11.90
2018-11-29T09:10:31.408Z,12.10
2018-11-29T09:12:53.497Z,12.20
2018-11-29T09:15:22.175Z,11.63
2018-11-29T09:17:50.857Z,12.40
2018-11-29T09:20:20.490Z,12.00
2018-11-29T09:22:49.168Z,12.73
2018-11-29T09:25:19.902Z,12.33
2018-11-29T09:27:48.669Z,12.78
2018-11-29T09:30:22.382Z,11.33
2018-11-29T09:32:52.202Z,12.25
2018-11-29T09:35:20.892Z,11.63
2018-11-29T09:37:49.569Z,11.40
2018-11-29T09:40:18.711Z,11.18
2018-11-29T09:42:47.446Z,11.20
2018-11-29T09:45:20.160Z,10.90
2018-11-29T09:47:49.961Z,10.80
2018-11-29T09:50:18.822Z,10.95
2018-11-29T09:52:47.482Z,10.58
2018-11-29T09:55:16.934Z,10.45
2018-11-29T09:57:46.533Z,10.58
2018-11-29T10:00:27.880Z,11.08
2018-11-29T10:03:00.902Z,10.10
2018-11-29T10:05:29.557Z,9.90
2018-11-29T10:07:58.223Z,10.63
2018-11-29T10:10:26.905Z,10.40
2018-11-29T10:12:55.851Z,9.68
2018-11-29T10:15:24.514Z,10.05
2018-11-29T10:17:53.212Z,10.03
2018-11-29T10:20:21.886Z,10.43
2018-11-29T10:22:50.573Z,9.60
2018-11-29T10:25:19.254Z,9.50
2018-11-29T10:27:49.703Z,9.97
2018-11-29T10:30:21.562Z,9.48
2018-11-29T10:32:50.225Z,9.88
2018-11-29T10:35:18.894Z,9.23
2018-11-29T10:37:47.574Z,9.08
2018-11-29T10:40:16.242Z,9.30
2018-11-29T10:42:44.917Z,8.58
2018-11-29T10:45:16.010Z,8.63
2018-11-29T10:47:52.017Z,8.35
2018-11-29T10:50:14.850Z,8.58
2018-11-29T10:52:43.529Z,7.70
2018-11-29T10:55:14.339Z,8.55
2018-11-29T10:57:43.063Z,9.20
2018-11-29T11:00:31.969Z,8.63
2018-11-29T11:03:22.170Z,8.90
2018-11-29T11:05:52.001Z,7.87
2018-11-29T11:08:21.088Z,7.65
2018-11-29T11:10:49.977Z,7.83
2018-11-29T11:13:18.705Z,8.35
2018-11-29T11:15:47.316Z,7.53
2018-11-29T11:18:16.646Z,7.92
2018-11-29T11:20:45.314Z,8.23
2018-11-29T11:23:14.006Z,7.60
2018-11-29T11:25:42.673Z,8.38
2018-11-29T11:28:11.341Z,7.83
2018-11-29T11:30:41.806Z,8.45
2018-11-29T11:33:10.486Z,7.58
2018-11-29T11:35:39.154Z,8.10
2018-11-29T11:38:07.849Z,7.70
2018-11-29T11:40:36.514Z,7.25
2018-11-29T11:43:05.891Z,7.83
2018-11-29T11:45:34.550Z,8.30
2018-11-29T11:48:03.730Z,7.25
2018-11-29T11:50:32.034Z,6.92
2018-11-29T11:53:00.705Z,7.67
2018-11-29T11:55:30.306Z,7.83
2018-11-29T11:57:58.069Z,7.17
2018-11-29T12:00:27.875Z,6.62
2018-11-29T12:03:10.450Z,7.25
2018-11-29T12:05:39.121Z,7.33
2018-11-29T12:08:08.022Z,7.22
2018-11-29T12:10:37.355Z,7.47
2018-11-29T12:13:06.974Z,7.30
2018-11-29T12:15:36.562Z,7.15
2018-11-29T12:18:06.790Z,7.55
2018-11-29T12:20:35.470Z,6.37
2018-11-29T12:23:04.178Z,7.53
2018-11-29T12:25:32.842Z,7.65
2018-11-29T12:28:01.502Z,7.00
2018-11-29T12:30:33.798Z,7.80
2018-11-29T12:33:03.630Z,7.12
2018-11-29T12:35:32.602Z,7.25
2018-11-29T12:38:01.308Z,7.67
2018-11-29T12:40:29.990Z,7.75
2018-11-29T12:42:58.659Z,7.80
2018-11-29T12:45:27.444Z,6.62
2018-11-29T12:47:56.118Z,7.65
2018-11-29T12:50:25.634Z,7.57
2018-11-29T12:52:54.358Z,7.47
2018-11-29T12:55:24.236Z,7.28
2018-11-29T12:58:04.568Z,7.83
2018-11-29T13:00:22.418Z,7.70
2018-11-29T13:02:52.158Z,6.83
2018-11-29T13:05:20.820Z,7.95
2018-11-29T13:07:49.654Z,8.08
2018-11-29T13:10:21.167Z,7.62
2018-11-29T13:12:49.865Z,6.60
2018-11-29T13:15:29.791Z,7.33
2018-11-29T13:17:59.393Z,6.95
2018-11-29T13:20:32.487Z,9.10
2018-11-29T13:22:56.738Z,7.53
2018-11-29T13:25:26.580Z,7.72
2018-11-29T13:27:55.242Z,7.87
2018-11-29T13:30:23.983Z,7.37
2018-11-29T13:32:55.716Z,9.70
2018-11-29T13:35:26.766Z,8.15
2018-11-29T13:37:57.800Z,9.55
2018-11-29T13:40:26.994Z,8.13
2018-11-29T13:42:55.777Z,7.87
2018-11-29T13:45:24.532Z,7.40
2018-11-29T13:47:53.103Z,6.95
2018-11-29T13:50:21.765Z,8.08
2018-11-29T13:52:50.457Z,8.68
2018-11-29T13:55:19.131Z,8.43
2018-11-29T13:57:49.931Z,8.30
2018-11-29T14:00:19.646Z,7.15
2018-11-29T14:02:49.679Z,7.67
2018-11-29T14:05:18.346Z,7.37
2018-11-29T14:07:47.033Z,6.22
2018-11-29T14:10:17.044Z,6.95
2018-11-29T14:12:46.576Z,6.60
2018-11-29T14:15:16.355Z,7.05
2018-11-29T14:17:45.125Z,6.50
2018-11-29T14:20:14.155Z,6.22
2018-11-29T14:22:42.843Z,7.15
2018-11-29T14:25:13.643Z,7.37
2018-11-29T14:27:43.380Z,7.20
2018-11-29T14:30:16.266Z,7.40
2018-11-29T14:32:44.967Z,7.97
2018-11-29T14:35:13.681Z,6.80
2018-11-29T14:37:42.433Z,6.25
2018-11-29T14:40:14.168Z,7.47
2018-11-29T14:42:42.839Z,6.70
2018-11-29T14:45:12.571Z,6.55
2018-11-29T14:47:41.249Z,6.83
2018-11-29T14:50:14.761Z,6.90
2018-11-29T14:52:43.446Z,5.87
2018-11-29T14:55:12.109Z,6.87
2018-11-29T14:57:40.774Z,6.40
2018-11-29T15:00:11.688Z,6.15
2018-11-29T15:02:40.734Z,6.50
2018-11-29T15:05:16.076Z,5.75
2018-11-29T15:07:44.763Z,6.62
2018-11-29T15:10:13.546Z,6.40
2018-11-29T15:12:42.229Z,6.47
2018-11-29T15:15:11.843Z,6.72
2018-11-29T15:17:41.353Z,6.58
2018-11-29T15:20:13.406Z,6.47
2018-11-29T15:22:42.146Z,6.53
2018-11-29T15:25:10.831Z,6.33
2018-11-29T15:27:39.494Z,5.67
2018-11-29T15:30:10.922Z,6.70
2018-11-29T15:32:39.595Z,6.22
2018-11-29T15:35:08.619Z,7.92
2018-11-29T15:37:37.286Z,6.92
2018-11-29T15:40:08.846Z,6.58
2018-11-29T15:42:37.656Z,6.53
2018-11-29T15:45:10.833Z,6.70
2018-11-29T15:47:48.934Z,6.62
2018-11-29T15:50:17.649Z,6.50
2018-11-29T15:52:46.396Z,5.60
2018-11-29T15:55:16.934Z,5.20
2018-11-29T15:57:46.611Z,5.95
2018-11-29T16:00:18.393Z,6.30
2018-11-29T16:02:47.875Z,6.37
2018-11-29T16:05:16.555Z,6.42
2018-11-29T16:07:45.237Z,5.50
2018-11-29T16:10:15.251Z,5.55
2018-11-29T16:12:43.931Z,5.87
2018-11-29T16:15:15.626Z,6.10
2018-11-29T16:17:44.900Z,5.53
2018-11-29T16:20:18.006Z,5.97
2018-11-29T16:22:46.680Z,5.08
2018-11-29T16:25:15.323Z,4.87
2018-11-29T16:27:44.026Z,5.47
2018-11-29T16:30:46.082Z,5.90
2018-11-29T16:33:17.708Z,4.60
2018-11-29T16:35:46.350Z,6.50
2018-11-29T16:38:15.031Z,6.40
2018-11-29T16:40:43.720Z,5.05
2018-11-29T16:43:12.358Z,4.92
2018-11-29T16:45:41.044Z,4.08
2018-11-29T16:48:09.714Z,4.40
2018-11-29T16:50:38.585Z,4.47
2018-11-29T16:53:07.474Z,5.20
2018-11-29T16:55:36.653Z,3.95
2018-11-29T16:58:07.379Z,5.20
2018-11-29T17:00:36.303Z,4.47
2018-11-29T17:03:04.978Z,4.28
2018-11-29T17:05:33.659Z,4.08
2018-11-29T17:08:02.593Z,4.53
2018-11-29T17:10:31.249Z,3.70
2018-11-29T17:13:02.251Z,4.47
2018-11-29T17:15:30.936Z,4.40
2018-11-29T17:17:59.590Z,4.33
2018-11-29T17:20:28.263Z,4.28
2018-11-29T17:22:56.986Z,3.72
2018-11-29T17:25:25.662Z,4.33
2018-11-29T17:27:54.317Z,3.72
2018-11-29T17:30:24.651Z,3.45
2018-11-29T17:32:54.422Z,3.60
2018-11-29T17:35:23.130Z,4.45
2018-11-29T17:37:52.478Z,3.47
2018-11-29T17:40:21.796Z,3.62
2018-11-29T17:42:51.595Z,2.85
2018-11-29T17:45:21.507Z,3.45
2018-11-29T17:47:51.438Z,3.42
2018-11-29T17:50:24.529Z,2.65
2018-11-29T17:52:53.278Z,2.35
2018-11-29T17:55:21.962Z,3.02
2018-11-29T17:57:50.630Z,3.27
2018-11-29T18:00:24.493Z,3.22
2018-11-29T18:02:53.296Z,2.72
2018-11-29T18:05:21.986Z,3.00
2018-11-29T18:07:50.741Z,3.70
2018-11-29T18:10:22.601Z,3.22
2018-11-29T18:12:56.713Z,2.80
2018-11-29T18:15:29.837Z,2.70
2018-11-29T18:17:58.507Z,3.65
2018-11-29T18:20:27.198Z,3.50
2018-11-29T18:22:55.858Z,2.80
2018-11-29T18:25:24.542Z,3.47
2018-11-29T18:27:53.328Z,2.80
2018-11-29T18:30:22.535Z,3.33
2018-11-29T18:32:51.209Z,3.30
2018-11-29T18:35:19.885Z,2.75
2018-11-29T18:37:48.571Z,2.35
2018-11-29T18:40:21.142Z,2.87
2018-11-29T18:42:53.221Z,2.85
2018-11-29T18:45:21.907Z,2.62
2018-11-29T18:47:51.299Z,2.67
2018-11-29T18:50:23.151Z,2.60
2018-11-29T18:52:51.950Z,2.47
2018-11-29T18:55:21.757Z,2.47
2018-11-29T18:57:50.617Z,2.20
2018-11-29T19:02:57.114Z,1.90
2018-11-29T19:05:23.377Z,1.70
2018-11-29T19:07:52.066Z,1.53
2018-11-29T19:10:21.147Z,2.33
2018-11-29T19:12:57.211Z,1.77
2018-11-29T19:15:25.902Z,2.20
2018-11-29T19:17:54.573Z,2.35
2018-11-29T19:20:23.365Z,1.92
2018-11-29T19:22:52.027Z,1.80
2018-11-29T19:25:20.862Z,1.85
2018-11-29T19:27:49.525Z,2.50
2018-11-29T19:30:26.397Z,2.10
2018-11-29T19:33:06.290Z,2.10
2018-11-29T19:35:35.042Z,2.37
2018-11-29T19:38:03.727Z,2.40
2018-11-29T19:40:32.439Z,2.27
2018-11-29T19:43:01.096Z,2.62
2018-11-29T19:45:29.769Z,2.10
2018-11-29T19:47:58.430Z,1.70
2018-11-29T19:50:27.102Z,1.93
2018-11-29T19:52:57.175Z,2.00
2018-11-29T19:55:28.014Z,2.57
2018-11-29T19:57:56.670Z,2.17
2018-11-29T20:00:25.381Z,2.20
2018-11-29T20:02:54.970Z,1.53
2018-11-29T20:05:23.642Z,2.10
2018-11-29T20:07:52.329Z,2.50
2018-11-29T20:10:21.001Z,2.57
2018-11-29T20:12:58.222Z,2.33
2018-11-29T20:15:32.381Z,2.57
2018-11-29T20:18:01.058Z,2.37
2018-11-29T20:20:29.815Z,2.80
2018-11-29T20:22:58.478Z,2.80
2018-11-29T20:25:27.372Z,2.40
2018-11-29T20:27:56.059Z,2.55
2018-11-29T20:30:24.777Z,2.50
2018-11-29T20:32:54.475Z,2.57
2018-11-29T20:35:23.281Z,2.50
2018-11-29T20:37:52.974Z,2.50
2018-11-29T20:40:23.711Z,3.00
2018-11-29T20:42:53.670Z,2.80
2018-11-29T20:45:24.870Z,2.50
2018-11-29T20:47:53.577Z,2.67
2018-11-29T20:50:23.553Z,2.80
2018-11-29T20:52:53.265Z,2.70
2018-11-29T20:55:23.673Z,2.70
2018-11-29T20:57:52.545Z,2.52
2018-11-29T21:00:21.218Z,3.20
2018-11-29T21:02:49.909Z,2.60
2018-11-29T21:05:19.651Z,3.12
2018-11-29T21:07:49.783Z,2.90
2018-11-29T21:10:20.594Z,2.60
2018-11-29T21:12:49.271Z,3.10
2018-11-29T21:15:18.159Z,3.10
2018-11-29T21:17:46.881Z,2.85
2018-11-29T21:20:16.471Z,2.90
2018-11-29T21:22:46.312Z,2.83
2018-11-29T21:25:17.438Z,2.60
2018-11-29T21:27:46.110Z,2.87
2018-11-29T21:30:15.637Z,2.40
2018-11-29T21:32:44.554Z,2.67
2018-11-29T21:35:16.358Z,2.22
2018-11-29T21:37:45.093Z,3.08
2018-11-29T21:40:15.473Z,2.80
2018-11-29T21:42:44.155Z,2.80
2018-11-29T21:45:12.819Z,2.40
2018-11-29T21:47:41.539Z,2.60
2018-11-29T21:50:10.181Z,2.40
2018-11-29T21:52:38.838Z,2.60
2018-11-29T21:55:08.001Z,3.27
2018-11-29T21:57:36.759Z,2.70
2018-11-29T22:00:11.553Z,2.60
2018-11-29T22:02:41.848Z,2.83
2018-11-29T22:05:10.396Z,2.83
2018-11-29T22:07:39.061Z,2.70
2018-11-29T22:10:08.026Z,2.83
2018-11-29T22:12:36.710Z,3.20
2018-11-29T22:15:07.510Z,3.17
2018-11-29T22:17:39.062Z,3.10
2018-11-29T22:20:07.735Z,3.00
2018-11-29T22:22:36.440Z,3.00
2018-11-29T22:25:05.969Z,3.15
2018-11-29T22:27:34.608Z,3.45
2018-11-29T22:30:03.258Z,2.87
2018-11-29T22:32:31.934Z,3.37
2018-11-29T22:35:00.594Z,3.08
2018-11-29T22:37:29.277Z,3.03
2018-11-29T22:39:57.943Z,3.17
2018-11-29T22:42:26.606Z,2.90
2018-11-29T22:44:55.279Z,3.45
2018-11-29T22:47:23.951Z,2.87
2018-11-29T22:49:52.613Z,2.93
2018-11-29T22:52:21.274Z,2.87
2018-11-29T22:54:49.934Z,3.23
2018-11-29T22:57:18.636Z,3.10
2018-11-29T22:59:47.299Z,2.90
2018-11-29T23:02:15.959Z,3.30
2018-11-29T23:04:44.612Z,2.73
2018-11-29T23:07:13.321Z,3.00
2018-11-29T23:09:41.931Z,3.57
2018-11-29T23:12:10.596Z,3.13
2018-11-29T23:14:39.250Z,3.23
2018-11-29T23:17:07.932Z,3.90
2018-11-29T23:19:36.589Z,3.27
2018-11-29T23:22:05.274Z,3.87
2018-11-29T23:24:34.000Z,4.00
2018-11-29T23:27:02.839Z,3.23
2018-11-29T23:29:31.558Z,3.75
2018-11-29T23:32:00.220Z,4.15
2018-11-29T23:34:28.895Z,3.90
2018-11-29T23:36:57.575Z,3.70
2018-11-29T23:39:26.244Z,4.08
2018-11-29T23:41:54.945Z,4.40
2018-11-29T23:44:23.610Z,4.12
2018-11-29T23:46:52.291Z,4.40
2018-11-29T23:49:20.983Z,3.83
2018-11-29T23:51:49.660Z,4.25
2018-11-29T23:54:18.326Z,4.53
2018-11-29T23:56:46.994Z,4.03
2018-11-29T23:59:15.659Z,4.05
